createdAt,value
2018-09-22T00:01:36.447Z,11.35
2018-09-22T00:04:04.854Z,11.27
2018-09-22T00:06:32.995Z,11.27
2018-09-22T00:09:01.135Z,11.25
2018-09-22T00:11:29.294Z,11.16
2018-09-22T00:13:57.431Z,11.07
2018-09-22T00:16:25.625Z,10.97
2018-09-22T00:18:54.026Z,10.98
2018-09-22T00:21:22.974Z,10.99
2018-09-22T00:23:52.148Z,11.02
2018-09-22T00:26:20.380Z,10.96
2018-09-22T00:28:48.547Z,10.82
2018-09-22T00:31:16.663Z,10.79
2018-09-22T00:33:44.883Z,10.79
2018-09-22T00:36:14.337Z,10.76
2018-09-22T00:38:42.643Z,10.76
2018-09-22T00:41:10.905Z,10.74
2018-09-22T00:43:39.123Z,10.65
2018-09-22T00:46:07.438Z,10.63
2018-09-22T00:48:35.629Z,10.57
2018-09-22T00:51:03.833Z,10.58
2018-09-22T00:53:31.888Z,10.67
2018-09-22T00:56:00.032Z,10.68
2018-09-22T00:58:28.194Z,10.65
2018-09-22T01:00:56.382Z,10.55
2018-09-22T01:03:24.495Z,10.48
2018-09-22T01:05:52.657Z,10.45
2018-09-22T01:08:20.770Z,10.46
2018-09-22T01:10:48.942Z,10.46
2018-09-22T01:13:17.077Z,10.38
2018-09-22T01:15:45.291Z,10.26
2018-09-22T01:18:13.489Z,10.30
2018-09-22T01:20:41.635Z,10.28
2018-09-22T01:23:09.852Z,10.17
2018-09-22T01:25:37.993Z,10.07
2018-09-22T01:28:06.141Z,10.10
2018-09-22T01:30:34.535Z,10.05
2018-09-22T01:33:02.680Z,9.97
2018-09-22T01:35:30.783Z,10.05
2018-09-22T01:37:58.861Z,10.07
2018-09-22T01:40:27.056Z,9.99
2018-09-22T01:42:56.211Z,9.99
2018-09-22T01:45:24.473Z,9.92
2018-09-22T01:47:52.724Z,9.90
2018-09-22T01:50:20.877Z,9.87
2018-09-22T01:52:49.038Z,9.86
2018-09-22T01:55:17.215Z,9.80
2018-09-22T01:57:45.373Z,9.76
2018-09-22T02:00:13.586Z,9.72
2018-09-22T02:02:41.787Z,9.62
2018-09-22T02:05:09.957Z,9.56
2018-09-22T02:07:38.064Z,9.61
2018-09-22T02:10:06.464Z,9.66
2018-09-22T02:12:34.604Z,9.62
2018-09-22T02:15:02.776Z,9.53
2018-09-22T02:17:31.059Z,9.56
2018-09-22T02:19:59.221Z,9.57
2018-09-22T02:22:27.353Z,9.55
2018-09-22T02:24:55.701Z,9.51
2018-09-22T02:27:23.784Z,9.46
2018-09-22T02:29:52.070Z,9.37
2018-09-22T02:32:20.316Z,9.40
2018-09-22T02:34:48.447Z,9.34
2018-09-22T02:37:17.332Z,9.30
2018-09-22T02:39:45.511Z,9.21
2018-09-22T02:42:13.646Z,9.18
2018-09-22T02:44:41.735Z,9.20
2018-09-22T02:47:09.840Z,9.21
2018-09-22T02:49:38.079Z,9.36
2018-09-22T02:52:06.429Z,9.27
2018-09-22T02:54:34.617Z,9.24
2018-09-22T02:57:02.718Z,9.18
2018-09-22T02:59:30.879Z,9.11
2018-09-22T03:01:59.047Z,9.10
2018-09-22T03:04:27.188Z,9.05
2018-09-22T03:06:55.427Z,8.99
2018-09-22T03:09:23.602Z,8.95
2018-09-22T03:11:51.927Z,8.88
2018-09-22T03:14:20.041Z,8.76
2018-09-22T03:16:48.213Z,8.71
2018-09-22T03:19:16.359Z,8.77
2018-09-22T03:21:44.563Z,8.94
2018-09-22T03:24:12.713Z,8.94
2018-09-22T03:26:40.806Z,8.90
2018-09-22T03:29:09.105Z,8.91
2018-09-22T03:31:37.369Z,8.86
2018-09-22T03:34:05.538Z,8.90
2018-09-22T03:36:33.795Z,8.88
2018-09-22T03:39:02.342Z,8.85
2018-09-22T03:41:30.500Z,8.81
2018-09-22T03:43:58.717Z,8.74
2018-09-22T03:46:27.395Z,8.71
2018-09-22T03:48:55.497Z,8.71
2018-09-22T03:51:23.619Z,8.70
2018-09-22T03:53:51.973Z,8.75
2018-09-22T03:56:20.090Z,8.75
2018-09-22T03:58:48.260Z,8.71
2018-09-22T04:01:16.541Z,8.72
2018-09-22T04:03:44.867Z,8.74
2018-09-22T04:06:12.976Z,8.76
2018-09-22T04:08:41.079Z,8.68
2018-09-22T04:11:09.472Z,8.64
2018-09-22T04:13:37.683Z,8.74
2018-09-22T04:16:05.846Z,8.74
2018-09-22T04:18:33.888Z,8.73
2018-09-22T04:21:02.216Z,8.76
2018-09-22T04:23:30.522Z,8.74
2018-09-22T04:25:58.736Z,8.74
2018-09-22T04:28:26.872Z,8.74
2018-09-22T04:30:55.157Z,8.76
2018-09-22T04:33:23.310Z,8.78
2018-09-22T04:35:51.324Z,8.93
2018-09-22T04:38:19.570Z,8.97
2018-09-22T04:40:47.922Z,8.94
2018-09-22T04:43:16.130Z,8.95
2018-09-22T04:45:44.309Z,9.02
2018-09-22T04:48:12.600Z,9.06
2018-09-22T04:50:40.924Z,9.08
2018-09-22T04:53:09.258Z,9.16
2018-09-22T04:55:37.394Z,9.22
2018-09-22T04:58:05.811Z,9.34
2018-09-22T05:00:34.033Z,9.48
2018-09-22T05:03:02.295Z,9.54
2018-09-22T05:05:30.557Z,9.79
2018-09-22T05:07:58.828Z,10.00
2018-09-22T05:10:27.121Z,10.38
2018-09-22T05:12:55.322Z,11.36
2018-09-22T05:15:23.509Z,11.89
2018-09-22T05:17:51.684Z,12.70
2018-09-22T05:20:20.200Z,12.91
2018-09-22T05:22:48.466Z,13.23
2018-09-22T05:25:16.559Z,13.24
2018-09-22T05:27:44.900Z,13.03
2018-09-22T05:30:13.275Z,12.99
2018-09-22T05:32:41.531Z,12.91
2018-09-22T05:35:09.715Z,12.94
2018-09-22T05:37:38.043Z,12.99
2018-09-22T05:40:06.683Z,13.23
2018-09-22T05:42:34.923Z,13.19
2018-09-22T05:45:03.339Z,12.92
2018-09-22T05:47:31.674Z,12.66
2018-09-22T05:49:59.939Z,12.86
2018-09-22T05:52:28.417Z,13.08
2018-09-22T05:54:56.789Z,13.01
2018-09-22T05:57:25.137Z,13.08
2018-09-22T05:59:53.711Z,13.02
2018-09-22T06:02:22.061Z,12.93
2018-09-22T06:04:50.768Z,13.13
2018-09-22T06:07:19.267Z,13.40
2018-09-22T06:09:48.314Z,13.54
2018-09-22T06:12:17.114Z,13.32
2018-09-22T06:14:45.569Z,13.35
2018-09-22T06:17:14.265Z,13.43
2018-09-22T06:19:42.908Z,13.58
2018-09-22T06:22:11.772Z,13.67
2018-09-22T06:24:40.329Z,13.99
2018-09-22T06:27:08.877Z,14.11
2018-09-22T06:29:37.310Z,14.30
2018-09-22T06:32:05.928Z,14.47
2018-09-22T06:34:34.600Z,14.61
2018-09-22T06:37:03.342Z,14.70
2018-09-22T06:39:32.061Z,14.81
2018-09-22T06:42:00.397Z,14.86
2018-09-22T06:44:28.795Z,15.09
2018-09-22T06:46:57.003Z,15.30
2018-09-22T06:49:25.349Z,15.28
2018-09-22T06:51:53.835Z,15.53
2018-09-22T06:54:22.303Z,15.62
2018-09-22T06:56:55.757Z,16.01
2018-09-22T06:59:24.097Z,16.49
2018-09-22T07:01:52.581Z,16.83
2018-09-22T07:04:26.114Z,16.96
2018-09-22T07:10:49.989Z,16.74
2018-09-22T07:13:22.743Z,16.90
2018-09-22T07:15:55.875Z,16.94
2018-09-22T07:18:30.371Z,17.31
2018-09-22T07:26:47.700Z,18.15
2018-09-22T07:29:20.308Z,18.45
2018-09-22T07:31:53.688Z,18.28
2018-09-22T07:34:27.525Z,18.43
2018-09-22T07:36:57.143Z,18.47
2018-09-22T07:39:28.820Z,18.86
2018-09-22T07:41:58.753Z,18.76
2018-09-22T07:49:43.137Z,19.22
2018-09-22T07:58:35.914Z,20.19
2018-09-22T08:01:06.636Z,20.28
2018-09-22T08:03:37.451Z,20.20
2018-09-22T08:06:09.396Z,20.01
2018-09-22T08:08:38.145Z,19.88
2018-09-22T08:11:06.512Z,20.00
2018-09-22T08:13:34.854Z,20.09
2018-09-22T08:16:03.309Z,20.49
2018-09-22T08:18:31.980Z,20.55
2018-09-22T08:21:01.055Z,21.09
2018-09-22T08:23:29.694Z,21.44
2018-09-22T08:25:58.461Z,21.57
2018-09-22T08:28:27.286Z,21.65
2018-09-22T08:30:55.795Z,22.09
2018-09-22T08:33:24.525Z,22.20
2018-09-22T08:35:53.043Z,22.11
2018-09-22T08:38:21.359Z,22.13
2018-09-22T08:40:49.738Z,22.26
2018-09-22T08:43:18.130Z,22.83
2018-09-22T08:45:46.321Z,22.64
2018-09-22T08:48:14.805Z,22.85
2018-09-22T08:50:43.304Z,22.92
2018-09-22T08:53:11.827Z,22.72
2018-09-22T08:55:40.228Z,22.97
2018-09-22T08:58:08.544Z,23.09
2018-09-22T09:00:37.009Z,23.56
2018-09-22T09:03:05.309Z,23.98
2018-09-22T09:05:33.712Z,23.76
2018-09-22T09:08:02.147Z,23.72
2018-09-22T09:10:30.870Z,23.93
2018-09-22T09:12:59.867Z,24.29
2018-09-22T09:15:28.399Z,24.69
2018-09-22T09:17:56.853Z,24.31
2018-09-22T09:20:25.550Z,24.52
2018-09-22T09:22:53.958Z,25.01
2018-09-22T09:25:22.514Z,25.12
2018-09-22T09:27:51.368Z,25.34
2018-09-22T09:30:20.636Z,25.25
2018-09-22T09:32:50.015Z,25.34
2018-09-22T09:35:18.685Z,25.39
2018-09-22T09:37:47.153Z,25.88
2018-09-22T09:40:15.651Z,26.03
2018-09-22T09:42:44.064Z,25.75
2018-09-22T09:45:12.727Z,25.88
2018-09-22T09:47:41.149Z,25.98
2018-09-22T09:50:09.711Z,26.13
2018-09-22T09:52:38.503Z,26.23
2018-09-22T09:55:07.487Z,26.44
2018-09-22T09:57:36.109Z,26.85
2018-09-22T10:00:04.838Z,26.77
2018-09-22T10:02:33.352Z,26.71
2018-09-22T10:05:01.768Z,26.80
2018-09-22T10:07:31.364Z,26.95
2018-09-22T10:10:00.958Z,26.74
2018-09-22T10:12:29.687Z,27.20
2018-09-22T10:14:58.747Z,27.13
2018-09-22T10:17:27.873Z,27.22
2018-09-22T10:19:56.553Z,27.05
2018-09-22T10:22:24.929Z,26.88
2018-09-22T10:24:53.248Z,26.52
2018-09-22T10:27:21.791Z,26.62
2018-09-22T10:29:50.491Z,26.96
2018-09-22T10:32:18.760Z,27.18
2018-09-22T10:34:47.196Z,27.51
2018-09-22T10:37:15.546Z,27.43
2018-09-22T10:39:43.820Z,27.65
2018-09-22T10:42:12.458Z,27.87
2018-09-22T10:44:40.739Z,28.26
2018-09-22T10:47:09.138Z,28.31
2018-09-22T10:49:37.595Z,28.27
2018-09-22T10:52:06.115Z,28.27
2018-09-22T10:54:34.845Z,28.21
2018-09-22T10:57:03.106Z,27.83
2018-09-22T10:59:31.348Z,27.29
2018-09-22T11:01:59.782Z,27.99
2018-09-22T11:04:28.470Z,27.91
2018-09-22T11:06:56.808Z,27.75
2018-09-22T11:09:24.972Z,27.85
2018-09-22T11:11:53.280Z,28.16
2018-09-22T11:14:21.477Z,27.70
2018-09-22T11:16:49.602Z,27.38
2018-09-22T11:19:18.171Z,27.65
2018-09-22T11:21:46.570Z,27.64
2018-09-22T11:24:15.154Z,27.55
2018-09-22T11:26:44.059Z,27.88
2018-09-22T11:29:16.249Z,28.04
2018-09-22T11:31:46.766Z,28.22
2018-09-22T11:34:17.405Z,28.18
2018-09-22T11:36:46.104Z,28.43
2018-09-22T11:39:14.613Z,28.31
2018-09-22T11:41:44.709Z,28.13
2018-09-22T11:44:14.607Z,27.95
2018-09-22T11:46:43.548Z,28.21
2018-09-22T11:49:12.152Z,28.18
2018-09-22T11:51:40.671Z,27.97
2018-09-22T11:54:09.404Z,28.13
2018-09-22T11:56:38.023Z,28.31
2018-09-22T11:59:07.307Z,28.43
2018-09-22T12:01:36.764Z,28.24
2018-09-22T12:04:05.273Z,28.43
2018-09-22T12:06:35.612Z,28.51
2018-09-22T12:09:06.327Z,28.44
2018-09-22T12:11:35.075Z,28.78
2018-09-22T12:14:03.528Z,28.42
2018-09-22T12:16:32.148Z,28.49
2018-09-22T12:19:01.087Z,28.37
2018-09-22T12:21:29.561Z,28.13
2018-09-22T12:23:58.167Z,28.31
2018-09-22T12:26:26.972Z,28.35
2018-09-22T12:28:55.937Z,28.58
2018-09-22T12:31:24.618Z,28.69
2018-09-22T12:33:53.569Z,28.64
2018-09-22T12:36:24.278Z,28.72
2018-09-22T12:38:52.808Z,28.59
2018-09-22T12:41:22.623Z,28.51
2018-09-22T12:43:51.230Z,28.39
2018-09-22T12:46:19.956Z,28.46
2018-09-22T12:48:48.340Z,28.52
2018-09-22T12:51:16.995Z,28.49
2018-09-22T12:53:45.557Z,28.41
2018-09-22T12:56:13.974Z,28.45
2018-09-22T12:58:42.533Z,28.41
2018-09-22T13:01:11.225Z,28.20
2018-09-22T13:03:40.282Z,28.21
2018-09-22T13:06:09.532Z,28.36
2018-09-22T13:08:38.600Z,28.42
2018-09-22T13:11:08.440Z,28.40
2018-09-22T13:13:37.530Z,28.23
2018-09-22T13:16:13.372Z,28.30
2018-09-22T13:18:48.395Z,28.21
2018-09-22T13:21:20.327Z,28.35
2018-09-22T13:23:49.314Z,28.24
2018-09-22T13:26:18.705Z,28.29
2018-09-22T13:28:49.264Z,28.42
2018-09-22T13:31:21.368Z,28.39
2018-09-22T13:33:51.478Z,28.36
2018-09-22T13:36:20.350Z,28.31
2018-09-22T13:38:49.236Z,28.11
2018-09-22T13:41:19.209Z,28.00
2018-09-22T13:43:47.899Z,27.99
2018-09-22T13:46:18.688Z,27.96
2018-09-22T13:48:47.587Z,28.06
2018-09-22T13:51:16.604Z,28.00
2018-09-22T13:53:45.493Z,27.97
2018-09-22T13:56:14.242Z,28.04
2018-09-22T13:58:44.874Z,27.98
2018-09-22T14:01:16.870Z,27.92
2018-09-22T14:03:49.318Z,27.82
2018-09-22T14:06:20.822Z,27.78
2018-09-22T14:08:54.073Z,27.95
2018-09-22T14:11:25.753Z,27.84
2018-09-22T14:13:57.934Z,28.02
2018-09-22T14:16:27.234Z,27.93
2018-09-22T14:18:59.537Z,27.60
2018-09-22T14:21:28.560Z,27.25
2018-09-22T14:23:57.927Z,27.31
2018-09-22T14:26:28.844Z,27.24
2018-09-22T14:28:58.863Z,27.13
2018-09-22T14:31:27.838Z,27.12
2018-09-22T14:33:56.569Z,26.83
2018-09-22T14:36:25.060Z,27.05
2018-09-22T14:38:56.342Z,26.82
2018-09-22T14:41:25.683Z,26.66
2018-09-22T14:43:54.763Z,26.87
2018-09-22T14:46:23.883Z,26.95
2018-09-22T14:48:55.354Z,26.99
2018-09-22T14:51:24.136Z,27.14
2018-09-22T14:53:53.949Z,26.93
2018-09-22T14:56:23.717Z,27.07
2018-09-22T14:58:58.072Z,26.84
2018-09-22T15:01:40.102Z,26.60
2018-09-22T15:04:08.671Z,26.67
2018-09-22T15:06:43.147Z,26.47
2018-09-22T15:09:12.194Z,26.22
2018-09-22T15:11:48.033Z,25.88
2018-09-22T15:14:22.689Z,25.61
2018-09-22T15:16:53.212Z,25.33
2018-09-22T15:19:29.120Z,25.20
2018-09-22T15:22:07.037Z,25.06
2018-09-22T15:27:19.353Z,24.72
2018-09-22T15:29:52.795Z,24.64
2018-09-22T15:32:33.134Z,24.25
2018-09-22T15:35:05.918Z,23.97
2018-09-22T15:37:46.378Z,23.69
2018-09-22T15:40:20.192Z,23.59
2018-09-22T15:42:50.739Z,23.13
2018-09-22T15:45:26.255Z,22.88
2018-09-22T15:48:07.412Z,22.68
2018-09-22T15:50:51.999Z,22.59
2018-09-22T15:53:23.677Z,22.39
2018-09-22T15:55:57.218Z,22.30
2018-09-22T15:58:28.180Z,22.09
2018-09-22T16:00:59.572Z,21.85
2018-09-22T16:03:28.686Z,21.67
2018-09-22T16:05:57.362Z,21.62
2018-09-22T16:08:26.028Z,21.58
2018-09-22T16:10:56.426Z,21.39
2018-09-22T16:13:25.918Z,21.25
2018-09-22T16:15:55.361Z,21.16
2018-09-22T16:18:24.688Z,20.97
2018-09-22T16:20:53.852Z,20.76
2018-09-22T16:23:23.243Z,20.64
2018-09-22T16:25:53.444Z,20.57
2018-09-22T16:28:23.229Z,20.46
2018-09-22T16:30:54.418Z,20.35
2018-09-22T16:33:27.135Z,20.28
2018-09-22T16:35:56.112Z,20.29
2018-09-22T16:38:24.540Z,20.10
2018-09-22T16:40:53.147Z,20.00
2018-09-22T16:43:21.780Z,20.01
2018-09-22T16:45:50.239Z,19.98
2018-09-22T16:48:21.180Z,19.87
2018-09-22T16:50:50.757Z,19.71
2018-09-22T16:53:19.906Z,19.56
2018-09-22T16:55:48.423Z,19.40
2018-09-22T16:58:17.733Z,19.41
2018-09-22T17:00:47.170Z,19.43
2018-09-22T17:03:16.915Z,19.45
2018-09-22T17:05:45.785Z,19.27
2018-09-22T17:08:14.527Z,19.21
2018-09-22T17:10:47.181Z,19.08
2018-09-22T17:13:16.163Z,19.11
2018-09-22T17:15:44.611Z,19.01
2018-09-22T17:18:13.262Z,18.95
2018-09-22T17:20:41.936Z,18.90
2018-09-22T17:23:10.510Z,18.86
2018-09-22T17:25:39.284Z,18.86
2018-09-22T17:28:07.922Z,18.97
2018-09-22T17:30:36.530Z,18.94
2018-09-22T17:33:05.400Z,18.88
2018-09-22T17:35:34.082Z,18.84
2018-09-22T17:38:02.786Z,18.69
2018-09-22T17:40:31.755Z,18.65
2018-09-22T17:43:00.430Z,18.55
2018-09-22T17:45:29.303Z,18.50
2018-09-22T17:47:58.827Z,18.51
2018-09-22T17:50:27.690Z,18.37
2018-09-22T17:52:56.686Z,18.28
2018-09-22T17:55:25.737Z,18.27
2018-09-22T17:57:55.079Z,18.29
2018-09-22T18:00:24.453Z,18.31
2018-09-22T18:02:53.804Z,18.20
2018-09-22T18:05:23.813Z,18.08
2018-09-22T18:07:52.810Z,18.03
2018-09-22T18:10:23.741Z,17.92
2018-09-22T18:12:52.700Z,17.99
2018-09-22T18:15:21.617Z,17.86
2018-09-22T18:17:50.479Z,17.80
2018-09-22T18:20:19.504Z,17.75
2018-09-22T18:22:48.304Z,17.74
2018-09-22T18:25:17.023Z,17.66
2018-09-22T18:27:45.788Z,17.61
2018-09-22T18:30:15.075Z,17.55
2018-09-22T18:32:44.249Z,17.55
2018-09-22T18:35:14.074Z,17.53
2018-09-22T18:37:43.281Z,17.54
2018-09-22T18:40:12.016Z,17.61
2018-09-22T18:42:42.152Z,17.61
2018-09-22T18:45:10.988Z,17.79
2018-09-22T18:47:41.244Z,17.84
2018-09-22T18:50:12.365Z,17.76
2018-09-22T18:52:42.697Z,17.74
2018-09-22T18:55:12.724Z,17.65
2018-09-22T18:57:43.283Z,17.65
2018-09-22T19:00:12.917Z,17.73
2018-09-22T19:02:43.173Z,17.78
2018-09-22T19:05:12.575Z,17.81
2018-09-22T19:07:41.738Z,17.81
2018-09-22T19:10:10.506Z,17.83
2018-09-22T19:12:39.383Z,18.03
2018-09-22T19:15:15.761Z,18.03
2018-09-22T19:17:50.518Z,17.87
2018-09-22T19:20:25.149Z,17.93
2018-09-22T19:22:57.028Z,17.82
2018-09-22T19:25:27.724Z,17.79
2018-09-22T19:30:51.327Z,17.71
2018-09-22T19:33:28.949Z,17.85
2018-09-22T19:36:08.378Z,17.78
2018-09-22T19:38:41.195Z,17.65
2018-09-22T19:41:17.529Z,17.49
2018-09-22T19:43:54.014Z,17.48
2018-09-22T19:46:34.289Z,17.34
2018-09-22T19:49:07.259Z,17.42
2018-09-22T19:51:42.474Z,17.39
2018-09-22T19:54:11.103Z,17.50
2018-09-22T19:56:40.338Z,17.51
2018-09-22T19:59:08.880Z,17.44
2018-09-22T20:01:37.534Z,17.53
2018-09-22T20:04:06.270Z,17.46
2018-09-22T20:06:35.518Z,17.37
2018-09-22T20:09:04.470Z,17.40
2018-09-22T20:11:34.139Z,17.29
2018-09-22T20:14:03.663Z,17.44
2018-09-22T20:16:32.296Z,17.36
2018-09-22T20:19:00.768Z,17.34
2018-09-22T20:21:29.238Z,17.24
2018-09-22T20:23:57.863Z,17.24
2018-09-22T20:26:26.409Z,17.33
2018-09-22T20:28:54.949Z,17.17
2018-09-22T20:31:23.285Z,17.20
2018-09-22T20:33:51.613Z,17.13
2018-09-22T20:36:20.217Z,17.08
2018-09-22T20:38:48.642Z,17.05
2018-09-22T20:41:17.932Z,17.24
2018-09-22T20:43:46.416Z,17.30
2018-09-22T20:46:15.034Z,17.45
2018-09-22T20:48:43.354Z,17.32
2018-09-22T20:51:13.068Z,17.40
2018-09-22T20:53:41.891Z,17.31
2018-09-22T20:56:10.383Z,17.28
2018-09-22T20:58:38.925Z,17.23
2018-09-22T21:01:07.824Z,17.51
2018-09-22T21:03:36.457Z,17.67
2018-09-22T21:06:05.094Z,17.42
2018-09-22T21:08:33.435Z,17.34
2018-09-22T21:11:01.839Z,17.30
2018-09-22T21:13:30.612Z,17.27
2018-09-22T21:15:59.052Z,17.32
2018-09-22T21:18:27.562Z,17.28
2018-09-22T21:20:56.044Z,17.34
2018-09-22T21:23:24.575Z,17.30
2018-09-22T21:25:53.013Z,17.15
2018-09-22T21:28:21.595Z,17.10
2018-09-22T21:30:50.019Z,17.05
2018-09-22T21:33:18.413Z,16.88
2018-09-22T21:35:47.048Z,16.86
2018-09-22T21:38:15.460Z,16.73
2018-09-22T21:40:43.963Z,16.69
2018-09-22T21:43:12.301Z,16.65
2018-09-22T21:45:40.778Z,16.66
2018-09-22T21:48:09.182Z,16.68
2018-09-22T21:50:37.484Z,16.65
2018-09-22T21:53:05.911Z,16.53
2018-09-22T21:55:34.443Z,16.50
2018-09-22T21:58:02.891Z,16.51
2018-09-22T22:00:31.411Z,16.68
2018-09-22T22:03:00.020Z,16.66
2018-09-22T22:05:28.506Z,16.72
2018-09-22T22:07:56.907Z,16.71
2018-09-22T22:10:25.320Z,16.73
2018-09-22T22:12:53.726Z,16.75
2018-09-22T22:15:22.062Z,16.87
2018-09-22T22:17:50.458Z,16.83
2018-09-22T22:20:18.832Z,16.76
2018-09-22T22:22:47.404Z,16.65
2018-09-22T22:25:16.148Z,16.59
2018-09-22T22:27:44.619Z,16.50
2018-09-22T22:30:12.988Z,16.49
2018-09-22T22:32:41.667Z,16.49
2018-09-22T22:35:10.077Z,16.46
2018-09-22T22:37:38.299Z,16.44
2018-09-22T22:40:06.528Z,16.37
2018-09-22T22:42:34.631Z,16.47
2018-09-22T22:45:06.432Z,16.39
2018-09-22T22:52:44.724Z,16.45
2018-09-22T22:55:12.960Z,16.40
2018-09-22T22:57:41.146Z,16.11
2018-09-22T23:00:09.396Z,16.17
2018-09-22T23:02:37.793Z,15.93
2018-09-22T23:05:06.004Z,15.75
2018-09-22T23:07:34.150Z,15.74
2018-09-22T23:10:02.527Z,15.52
2018-09-22T23:12:30.736Z,15.39
2018-09-22T23:14:58.796Z,15.35
2018-09-22T23:17:26.902Z,15.41
2018-09-22T23:19:54.948Z,15.41
2018-09-22T23:22:23.171Z,15.48
2018-09-22T23:24:51.320Z,15.54
2018-09-22T23:27:19.421Z,15.71
2018-09-22T23:29:47.504Z,15.80
2018-09-22T23:32:15.729Z,15.59
2018-09-22T23:34:43.811Z,15.49
2018-09-22T23:37:11.862Z,15.41
2018-09-22T23:39:39.839Z,15.41
2018-09-22T23:42:08.003Z,15.34
2018-09-22T23:44:36.108Z,15.24
2018-09-22T23:47:04.293Z,15.18
2018-09-22T23:49:32.289Z,15.14
2018-09-22T23:52:00.485Z,15.31
2018-09-22T23:54:28.504Z,15.15
2018-09-22T23:56:56.497Z,15.03
2018-09-22T23:59:24.586Z,15.00
